Huvudsida
METAR-TAF:

METAR-TAF

Flygplatser :

Trevico, Italien

latitud: 41-03N, longitud: 015-14E, höjd: 1085 m

Aktuellt väderrapport

Denna rapport gjordes för 10 timmar och 29 minuter sedan, klockan 17:55 UTC
Vind 8 kt från väst
Temperatur 18°C
Fuktighet 83%
Tryck 1016 hPa
Sikt 10 km eller mer
Få moln på en höjd av 300 ft
Spridda moln på en höjd av 1300 ft

METAR: LIRT 181755Z 28008KT 9999 FEW003 SCT013 18/15 Q1016 RMK SCT MON LIB VAL NIL VIS MIN 9999

Tid: 06:24 (04:24 UTC)


TAF: saknas

Aktuella väderrapporter och prognoser från 4000 flygplatser (METAR- och TAF-rapporter).

De tillgängliga stationerna syns som gula och röda prickar på kartan.

För musen över prickarna för att se namnen på stationerna.

Klicka sedan för att få väderrapporter och prognoser.

För att ändra kartan: Klicka på de gröna knapparna med ett svart kors på för att zooma in; den gröna knappen med ett streck på för att zooma ut; eller på de gröna pilarna för angränsande kartor.


METAR-TAF: